Time;durP1;ratioP1;P1;durP2;ratioP2;P2;SDS_P1;SDS_P2;PMS_P1;PMS_P2;Temp;Humidity;BMP_temperature;BMP_pressure;BME280_temperature;BME280_humidity;BME280_pressure;Samples;Min_cycle;Max_cycle;Signal;HPM_P1;HPM_P2
2024/02/23 00:00:07;;;;;;;10.60;4.20;;;;;;;11.99;46.39;99782.73;108291;1253;60886;-65
2024/02/23 00:02:34;;;;;;;6.20;3.90;;;;;;;11.83;46.58;99777.54;108286;1254;60294;-65
2024/02/23 00:05:02;;;;;;;7.20;4.00;;;;;;;12.15;46.15;99772.12;108165;1253;72605;-68
2024/02/23 00:07:30;;;;;;;6.90;4.00;;;;;;;12.04;46.46;99770.72;108189;1254;68862;-65
2024/02/23 00:09:57;;;;;;;9.70;4.70;;;;;;;11.87;46.71;99774.66;108058;1254;72770;-67
2024/02/23 00:12:25;;;;;;;8.00;3.80;;;;;;;12.25;45.99;99767.39;108167;1254;60813;-68
2024/02/23 00:14:52;;;;;;;7.70;4.50;;;;;;;12.25;45.82;99768.27;108162;1254;60389;-66
2024/02/23 00:17:20;;;;;;;9.00;4.30;;;;;;;11.90;46.55;99765.75;108103;1254;73777;-67
2024/02/23 00:19:49;;;;;;;6.10;3.90;;;;;;;12.15;45.99;99770.56;108319;1254;68988;-66
2024/02/23 00:22:16;;;;;;;6.70;3.90;;;;;;;12.01;46.32;99755.91;108159;1253;72495;-67
2024/02/23 00:24:44;;;;;;;5.70;3.00;;;;;;;11.82;46.85;99750.48;108186;1256;60961;-66
2024/02/23 00:27:11;;;;;;;5.30;3.20;;;;;;;12.02;46.57;99751.30;108261;1254;60581;-67
2024/02/23 00:29:40;;;;;;;7.50;3.40;;;;;;;12.03;46.61;99741.04;108127;1259;73816;-66
2024/02/23 00:32:08;;;;;;;6.40;3.50;;;;;;;11.88;46.80;99748.42;108266;1254;69228;-67
2024/02/23 00:34:37;;;;;;;7.40;3.80;;;;;;;11.70;47.26;99750.48;108196;1254;71718;-67
2024/02/23 00:37:08;;;;;;;6.70;3.60;;;;;;;11.72;47.39;99741.63;108288;1255;60846;-67
2024/02/23 00:39:37;;;;;;;4.10;2.70;;;;;;;11.83;47.11;99739.52;108330;1255;60523;-67
2024/02/23 00:42:05;;;;;;;5.20;3.70;;;;;;;11.86;47.25;99742.89;108341;1254;73754;-66
2024/02/23 00:44:33;;;;;;;6.30;3.70;;;;;;;12.12;46.68;99737.96;108242;1256;68718;-65
2024/02/23 00:47:01;;;;;;;4.20;2.50;;;;;;;11.83;47.15;99742.86;108148;1259;71517;-67
2024/02/23 00:49:29;;;;;;;10.20;5.70;;;;;;;11.75;47.56;99739.36;108273;1254;60940;-66
2024/02/23 00:51:57;;;;;;;7.90;4.20;;;;;;;12.12;46.71;99735.15;108683;1254;58786;-67
2024/02/23 00:54:24;;;;;;;9.10;4.70;;;;;;;12.07;46.83;99736.29;108464;1256;72380;-66
2024/02/23 00:56:52;;;;;;;7.70;4.30;;;;;;;12.27;46.43;99735.08;108223;1256;70966;-65
2024/02/23 00:59:23;;;;;;;6.60;4.20;;;;;;;11.93;47.10;99737.83;108261;1256;72325;-67
2024/02/23 01:01:51;;;;;;;5.70;3.60;;;;;;;11.95;47.16;99741.73;108350;1254;60309;-67
2024/02/23 01:04:18;;;;;;;6.80;3.40;;;;;;;12.18;46.67;99739.04;108195;1255;59077;-67
2024/02/23 01:06:46;;;;;;;6.80;4.00;;;;;;;12.27;46.52;99742.48;108161;1254;73845;-68
2024/02/23 01:09:16;;;;;;;6.60;3.50;;;;;;;12.13;46.75;99734.56;108203;1254;70465;-66
2024/02/23 01:11:43;;;;;;;7.90;4.40;;;;;;;12.01;47.07;99735.70;108273;1254;73131;-67
2024/02/23 01:14:11;;;;;;;7.10;3.80;;;;;;;12.02;47.06;99734.23;108272;1254;60867;-67
2024/02/23 01:16:38;;;;;;;7.70;4.20;;;;;;;12.11;46.90;99740.45;108213;1254;59623;-68
2024/02/23 01:19:07;;;;;;;7.20;4.60;;;;;;;12.23;46.71;99736.89;108239;1253;73914;-67
2024/02/23 01:21:35;;;;;;;5.70;3.70;;;;;;;12.21;46.73;99740.13;108268;1254;68790;-67
2024/02/23 01:24:04;;;;;;;9.60;4.40;;;;;;;12.21;46.68;99747.19;108236;1255;72692;-66
2024/02/23 01:26:31;;;;;;;6.60;3.80;;;;;;;12.42;46.20;99731.69;108237;1254;60887;-66
2024/02/23 01:28:59;;;;;;;8.60;3.70;;;;;;;12.03;47.09;99735.42;108287;1254;60389;-63
2024/02/23 01:31:26;;;;;;;6.60;3.00;;;;;;;12.00;47.19;99733.79;108296;1254;72623;-66
2024/02/23 01:33:54;;;;;;;8.10;4.30;;;;;;;12.04;47.25;99730.06;108291;1254;69972;-66
2024/02/23 01:36:22;;;;;;;7.50;4.60;;;;;;;12.20;46.84;99728.95;108131;1254;71564;-65
2024/02/23 01:38:50;;;;;;;8.30;4.20;;;;;;;12.31;46.64;99725.74;108098;1254;61759;-69
2024/02/23 01:41:17;;;;;;;5.40;3.90;;;;;;;12.25;46.74;99727.45;108034;1254;60358;-67
2024/02/23 01:43:44;;;;;;;7.60;3.40;;;;;;;12.11;46.89;99723.40;108127;1254;73824;-67
2024/02/23 01:46:12;;;;;;;7.00;4.10;;;;;;;12.02;47.24;99722.10;108252;1256;70076;-65
2024/02/23 01:48:40;;;;;;;7.00;4.50;;;;;;;11.88;47.54;99728.91;108146;1260;72678;-67
2024/02/23 01:51:07;;;;;;;6.60;3.70;;;;;;;12.03;47.28;99725.36;108189;1254;60916;-67
2024/02/23 01:53:34;;;;;;;8.60;4.70;;;;;;;11.77;47.92;99724.87;108133;1254;60502;-67
2024/02/23 01:56:03;;;;;;;8.00;4.10;;;;;;;12.06;47.38;99719.80;108115;1254;72925;-65
2024/02/23 01:58:30;;;;;;;6.70;4.40;;;;;;;11.97;47.53;99724.25;108176;1254;68857;-66
2024/02/23 02:00:58;;;;;;;7.90;4.70;;;;;;;12.10;47.21;99723.97;108084;1257;71473;-67
2024/02/23 02:03:25;;;;;;;7.80;4.40;;;;;;;12.06;47.30;99723.48;108273;1258;60248;-68
2024/02/23 02:05:53;;;;;;;10.10;5.10;;;;;;;11.99;47.55;99718.88;108346;1255;61153;-66
2024/02/23 02:08:21;;;;;;;7.60;4.50;;;;;;;11.88;47.86;99722.74;108031;1254;73872;-66
2024/02/23 02:10:49;;;;;;;9.10;3.80;;;;;;;11.64;48.44;99724.77;108081;1258;70427;-66
2024/02/23 02:13:17;;;;;;;9.90;5.40;;;;;;;11.79;48.05;99723.19;108144;1258;72693;-67
2024/02/23 02:15:44;;;;;;;6.50;3.60;;;;;;;12.14;47.40;99720.09;108028;1260;60331;-65
2024/02/23 02:18:12;;;;;;;8.20;4.40;;;;;;;11.78;48.06;99719.17;108077;1254;60479;-65
2024/02/23 02:20:40;;;;;;;9.10;5.30;;;;;;;11.49;48.72;99723.04;108242;1253;72828;-67
2024/02/23 02:23:08;;;;;;;11.70;5.90;;;;;;;11.86;48.01;99717.57;108016;1253;70257;-67
2024/02/23 02:25:36;;;;;;;9.70;5.00;;;;;;;11.80;48.13;99718.04;108193;1255;72701;-66
2024/02/23 02:28:07;;;;;;;7.10;4.60;;;;;;;11.56;48.78;99717.23;107984;1254;121674;-64
2024/02/23 02:31:51;;;;;;;8.50;4.60;;;;;;;9.06;55.21;99719.36;105057;1288;600160;-65
2024/02/23 02:34:19;;;;;;;8.70;4.90;;;;;;;10.29;52.16;99709.96;107409;1264;60948;-67
2024/02/23 02:36:46;;;;;;;9.00;4.80;;;;;;;10.55;51.67;99704.63;107471;1269;59085;-66
2024/02/23 02:39:14;;;;;;;9.00;5.70;;;;;;;10.46;51.90;99708.88;107431;1264;72302;-65
2024/02/23 02:41:41;;;;;;;8.30;5.00;;;;;;;10.52;51.77;99709.32;107435;1266;68693;-65
2024/02/23 02:44:09;;;;;;;8.60;5.50;;;;;;;10.60;51.60;99707.95;107396;1266;71288;-67
2024/02/23 02:46:37;;;;;;;8.90;4.30;;;;;;;10.59;51.59;99709.70;107327;1265;121732;-66
2024/02/23 02:49:05;;;;;;;10.60;5.30;;;;;;;10.55;51.97;99704.43;107504;1261;59147;-66
2024/02/23 02:51:32;;;;;;;10.20;5.30;;;;;;;10.83;51.36;99705.00;107499;1261;70508;-63
2024/02/23 02:54:00;;;;;;;9.00;6.00;;;;;;;10.95;51.02;99705.15;107421;1263;70055;-65
2024/02/23 02:56:27;;;;;;;9.80;5.90;;;;;;;11.10;50.58;99703.19;107405;1264;70826;-65
2024/02/23 02:58:55;;;;;;;10.20;5.40;;;;;;;11.09;50.59;99703.06;107523;1261;59831;-64
2024/02/23 03:01:23;;;;;;;11.00;6.50;;;;;;;10.96;50.96;99702.13;107556;1259;59688;-65
2024/02/23 03:03:51;;;;;;;11.00;6.50;;;;;;;10.87;51.27;99699.55;107508;1260;71709;-65
2024/02/23 03:06:18;;;;;;;12.90;6.20;;;;;;;11.07;50.84;99701.96;107543;1261;68727;-62
2024/02/23 03:08:46;;;;;;;14.10;6.80;;;;;;;10.78;51.76;99701.52;107507;1265;72716;-64
2024/02/23 03:11:13;;;;;;;10.00;6.40;;;;;;;11.10;51.08;99702.01;107440;1261;60932;-63
2024/02/23 03:13:41;;;;;;;11.00;6.60;;;;;;;11.19;50.81;99700.89;107888;1260;59983;-62
2024/02/23 03:16:17;;;;;;;10.70;5.00;;;;;;;10.99;51.37;99706.20;107926;1254;73084;-65
2024/02/23 03:18:45;;;;;;;13.10;6.80;;;;;;;11.08;51.34;99714.56;108326;1251;70325;-64
2024/02/23 03:21:15;;;;;;;12.20;6.90;;;;;;;11.20;50.91;99710.30;108328;1251;72683;-62
2024/02/23 03:23:42;;;;;;;15.20;7.90;;;;;;;11.14;51.34;99711.64;108294;1251;60774;-65
2024/02/23 03:26:10;;;;;;;11.00;5.70;;;;;;;11.20;51.05;99713.29;108350;1251;59221;-66
2024/02/23 03:28:37;;;;;;;15.10;6.90;;;;;;;11.07;51.51;99711.27;108348;1251;75375;-65
2024/02/23 03:31:05;;;;;;;10.80;5.60;;;;;;;11.06;51.52;99711.31;108137;1251;70093;-66
2024/02/23 03:33:32;;;;;;;12.70;5.40;;;;;;;11.05;51.70;99712.04;108288;1251;72702;-65
2024/02/23 03:36:00;;;;;;;11.80;7.20;;;;;;;11.16;51.49;99709.44;108215;1254;59560;-66
2024/02/23 03:38:29;;;;;;;11.50;6.60;;;;;;;11.39;50.95;99704.14;108284;1251;59990;-66
2024/02/23 03:40:59;;;;;;;13.40;7.90;;;;;;;11.35;51.00;99708.73;108296;1251;71758;-64
2024/02/23 03:43:27;;;;;;;13.50;7.10;;;;;;;11.32;51.02;99706.23;108284;1251;70140;-64
2024/02/23 03:45:58;;;;;;;15.90;7.50;;;;;;;11.11;51.67;99715.30;108163;1251;72668;-66
2024/02/23 03:48:28;;;;;;;12.50;6.90;;;;;;;11.21;51.55;99709.73;108186;1256;61212;-66
2024/02/23 03:50:55;;;;;;;11.30;5.60;;;;;;;11.36;51.16;99711.34;108288;1251;59965;-66
2024/02/23 03:53:23;;;;;;;11.70;6.10;;;;;;;11.08;51.91;99714.40;108261;1251;71846;-67
2024/02/23 03:55:50;;;;;;;16.30;6.80;;;;;;;11.13;51.85;99713.08;108208;1251;69030;-66
2024/02/23 03:58:18;;;;;;;11.30;7.20;;;;;;;10.98;52.23;99711.33;108207;1254;72758;-66
2024/02/23 04:00:45;;;;;;;11.90;7.10;;;;;;;10.90;52.71;99709.05;108216;1254;60422;-66
2024/02/23 04:03:13;;;;;;;11.40;6.90;;;;;;;10.94;52.53;99706.05;108277;1251;60274;-65
2024/02/23 04:05:41;;;;;;;11.40;6.20;;;;;;;10.86;52.97;99708.20;108229;1253;73159;-66
2024/02/23 04:08:08;;;;;;;7.00;4.70;;;;;;;11.08;52.31;99712.63;108232;1251;69180;-65
2024/02/23 04:10:36;;;;;;;15.70;8.00;;;;;;;11.08;52.38;99718.07;108230;1253;71296;-66
2024/02/23 04:13:04;;;;;;;8.50;4.70;;;;;;;11.08;52.36;99710.31;108196;1256;59675;-65
2024/02/23 04:15:31;;;;;;;14.40;8.20;;;;;;;10.91;52.80;99716.02;108238;1251;59624;-66
2024/02/23 04:17:59;;;;;;;15.90;8.70;;;;;;;11.13;52.23;99711.52;108203;1251;72960;-66
2024/02/23 04:20:26;;;;;;;15.30;7.20;;;;;;;10.97;52.55;99710.65;108211;1252;69531;-66
2024/02/23 04:22:54;;;;;;;14.80;7.80;;;;;;;10.68;53.41;99710.53;108168;1256;70080;-64
2024/02/23 04:25:22;;;;;;;18.00;9.70;;;;;;;10.79;53.20;99715.15;108309;1256;61076;-66
2024/02/23 04:27:49;;;;;;;13.80;7.80;;;;;;;10.94;52.82;99711.15;108257;1251;59406;-66
2024/02/23 04:30:17;;;;;;;18.50;9.40;;;;;;;10.92;52.99;99711.22;108227;1251;73050;-66
2024/02/23 04:32:44;;;;;;;12.00;6.10;;;;;;;10.99;52.77;99706.35;108174;1251;69222;-66
2024/02/23 04:35:12;;;;;;;14.70;8.00;;;;;;;10.71;53.53;99703.38;108351;1254;72721;-66
2024/02/23 04:37:39;;;;;;;14.80;7.70;;;;;;;10.83;53.34;99713.55;108221;1252;60890;-67
2024/02/23 04:40:08;;;;;;;19.10;8.70;;;;;;;10.78;53.51;99712.94;108382;1251;60048;-66
2024/02/23 04:42:35;;;;;;;14.50;8.90;;;;;;;11.03;52.89;99707.91;108397;1256;73070;-63
2024/02/23 04:45:03;;;;;;;14.90;9.10;;;;;;;11.16;52.61;99708.41;108391;1251;69906;-67
2024/02/23 04:47:32;;;;;;;16.50;8.20;;;;;;;11.22;52.36;99711.48;108387;1251;72470;-66
2024/02/23 04:50:00;;;;;;;14.60;8.90;;;;;;;10.95;53.06;99714.81;108362;1256;60943;-67
2024/02/23 04:52:27;;;;;;;13.30;7.10;;;;;;;10.96;52.95;99716.69;108358;1251;59529;-66
2024/02/23 04:54:55;;;;;;;14.00;8.10;;;;;;;10.90;53.31;99720.45;108300;1251;72983;-66
2024/02/23 04:57:22;;;;;;;15.60;7.90;;;;;;;11.04;52.96;99729.30;108360;1251;68679;-66
2024/02/23 04:59:50;;;;;;;16.00;9.10;;;;;;;11.02;52.88;99725.88;108376;1256;72461;-66
2024/02/23 05:02:17;;;;;;;13.50;7.10;;;;;;;11.26;52.38;99723.91;108385;1251;60806;-66
2024/02/23 05:04:45;;;;;;;13.50;8.10;;;;;;;11.14;52.67;99724.66;108387;1252;59777;-66
2024/02/23 05:07:12;;;;;;;13.90;7.10;;;;;;;11.28;52.40;99723.50;108359;1250;72986;-65
2024/02/23 05:09:40;;;;;;;15.40;7.90;;;;;;;11.22;52.64;99732.02;108324;1251;70113;-66
2024/02/23 05:12:08;;;;;;;15.50;7.20;;;;;;;11.28;52.50;99728.75;108397;1251;72472;-65
2024/02/23 05:14:36;;;;;;;15.40;8.60;;;;;;;11.26;52.50;99732.21;108430;1256;60067;-66
2024/02/23 05:17:04;;;;;;;16.90;8.10;;;;;;;11.22;52.62;99734.81;108459;1251;60070;-65
2024/02/23 05:19:31;;;;;;;19.80;9.30;;;;;;;11.43;52.17;99740.15;108359;1255;73090;-67
2024/02/23 05:21:59;;;;;;;10.00;5.80;;;;;;;11.44;52.08;99733.80;108341;1251;70090;-67
2024/02/23 05:24:26;;;;;;;10.00;5.90;;;;;;;11.13;52.80;99733.64;108352;1251;72527;-66
2024/02/23 05:26:54;;;;;;;13.80;7.20;;;;;;;11.19;52.88;99746.74;108383;1251;59984;-67
2024/02/23 05:29:22;;;;;;;15.80;8.40;;;;;;;11.13;53.00;99742.60;108332;1251;59511;-68
2024/02/23 05:31:51;;;;;;;12.60;7.60;;;;;;;11.14;53.00;99742.41;108349;1250;73159;-67
2024/02/23 05:34:19;;;;;;;15.00;8.10;;;;;;;11.17;53.07;99747.34;108340;1252;70153;-65
2024/02/23 05:36:47;;;;;;;14.80;8.30;;;;;;;11.10;53.29;99752.42;108392;1254;71365;-66
2024/02/23 05:39:15;;;;;;;12.40;6.30;;;;;;;11.39;52.69;99749.84;108438;1252;59711;-67
2024/02/23 05:41:43;;;;;;;12.90;6.80;;;;;;;11.46;52.46;99753.41;108375;1251;59500;-67
2024/02/23 05:44:13;;;;;;;11.90;5.30;;;;;;;11.36;52.76;99745.80;108339;1251;73348;-67
2024/02/23 05:46:42;;;;;;;11.80;6.40;;;;;;;11.29;53.00;99752.44;108350;1253;69049;-67
2024/02/23 05:49:09;;;;;;;18.60;9.50;;;;;;;11.20;53.29;99758.11;108234;1252;72632;-67
2024/02/23 05:51:37;;;;;;;18.10;8.90;;;;;;;11.59;52.35;99758.92;108267;1256;61982;-67
2024/02/23 05:54:05;;;;;;;16.60;5.90;;;;;;;11.79;51.83;99762.94;108206;1258;62645;-67
2024/02/23 05:56:32;;;;;;;15.10;8.60;;;;;;;11.51;52.41;99763.04;108348;1251;73030;-66
2024/02/23 05:59:00;;;;;;;18.70;9.40;;;;;;;11.41;52.76;99767.87;108279;1251;69937;-68
2024/02/23 06:01:27;;;;;;;20.30;9.80;;;;;;;11.49;52.66;99776.61;108286;1251;71523;-67
2024/02/23 06:03:55;;;;;;;18.40;9.20;;;;;;;11.93;51.55;99776.16;108280;1254;60855;-68
2024/02/23 06:06:22;;;;;;;14.70;8.00;;;;;;;11.78;51.83;99780.60;108328;1251;59474;-66
2024/02/23 06:08:51;;;;;;;16.70;8.60;;;;;;;11.63;52.10;99786.18;108334;1251;71773;-62
2024/02/23 06:11:18;;;;;;;14.30;8.40;;;;;;;11.79;51.80;99779.09;108346;1251;70440;-65
2024/02/23 06:13:46;;;;;;;17.40;9.20;;;;;;;11.50;52.58;99781.67;108344;1255;72684;-66
2024/02/23 06:16:14;;;;;;;17.20;8.50;;;;;;;11.70;52.03;99778.30;108318;1255;60019;-66
2024/02/23 06:18:41;;;;;;;21.00;10.20;;;;;;;11.46;52.64;99775.20;108373;1251;59236;-64
2024/02/23 06:21:15;;;;;;;13.80;8.20;;;;;;;11.60;52.37;99779.45;108372;1251;72930;-66
2024/02/23 06:23:43;;;;;;;17.30;9.20;;;;;;;11.60;52.27;99788.06;108472;1251;68785;-66
2024/02/23 06:26:11;;;;;;;17.20;8.90;;;;;;;11.51;52.65;99791.48;108402;1251;71184;-66
2024/02/23 06:28:41;;;;;;;17.30;9.60;;;;;;;11.65;52.32;99788.92;108460;1250;59634;-65
2024/02/23 06:31:09;;;;;;;15.40;9.50;;;;;;;11.38;52.93;99793.83;108316;1254;60119;-66
2024/02/23 06:33:36;;;;;;;16.00;8.20;;;;;;;11.48;52.72;99792.34;108215;1251;71748;-65
2024/02/23 06:36:04;;;;;;;17.70;9.90;;;;;;;11.43;52.92;99793.80;108318;1251;71489;-66
2024/02/23 06:38:32;;;;;;;17.60;10.90;;;;;;;11.46;52.75;99795.92;108195;1253;72712;-65
2024/02/23 06:41:00;;;;;;;17.70;10.10;;;;;;;11.41;53.08;99789.67;108253;1257;60974;-67
2024/02/23 06:43:28;;;;;;;16.40;8.00;;;;;;;11.51;52.79;99800.79;108260;1252;60599;-67
2024/02/23 06:45:55;;;;;;;20.60;11.10;;;;;;;11.55;52.75;99802.04;108167;1251;72639;-67
2024/02/23 06:48:24;;;;;;;14.20;8.60;;;;;;;11.65;52.52;99798.94;108354;1251;70177;-67
2024/02/23 06:50:57;;;;;;;14.80;9.20;;;;;;;11.71;52.34;99799.89;108358;1251;71392;-66
2024/02/23 06:53:25;;;;;;;20.80;12.00;;;;;;;11.63;52.54;99798.84;108174;1251;60383;-67
2024/02/23 06:55:52;;;;;;;19.40;10.50;;;;;;;11.78;52.03;99805.53;108266;1251;59744;-67
2024/02/23 06:58:20;;;;;;;17.90;10.00;;;;;;;11.57;52.75;99811.95;108312;1251;74009;-64
2024/02/23 07:00:48;;;;;;;20.10;11.50;;;;;;;11.67;52.47;99798.16;108332;1251;72757;-67
2024/02/23 07:03:16;;;;;;;20.50;11.30;;;;;;;11.84;52.15;99796.10;108146;1253;71464;-66
2024/02/23 07:05:45;;;;;;;19.10;11.20;;;;;;;11.80;52.05;99797.55;108299;1254;60599;-67
2024/02/23 07:08:13;;;;;;;22.00;10.60;;;;;;;11.69;52.25;99799.09;108332;1251;61289;-67
2024/02/23 07:10:41;;;;;;;21.20;12.10;;;;;;;11.65;52.58;99799.63;108299;1254;72396;-67
2024/02/23 07:13:09;;;;;;;20.30;12.10;;;;;;;11.67;52.37;99790.95;108336;1251;70726;-68
2024/02/23 07:15:37;;;;;;;21.00;11.50;;;;;;;11.74;52.28;99795.38;108329;1251;73738;-67
2024/02/23 07:18:05;;;;;;;22.00;11.60;;;;;;;11.56;52.75;99797.23;108270;1254;60287;-66
2024/02/23 07:20:32;;;;;;;17.80;10.90;;;;;;;11.81;52.17;99795.73;108272;1251;61047;-66
2024/02/23 07:23:00;;;;;;;21.20;11.60;;;;;;;11.71;52.37;99795.30;108276;1251;74188;-67
2024/02/23 07:25:27;;;;;;;12.50;6.70;;;;;;;11.81;51.95;99801.88;108340;1251;68959;-64
2024/02/23 07:27:55;;;;;;;20.90;12.00;;;;;;;11.81;52.04;99814.89;108342;1253;73218;-65
2024/02/23 07:30:22;;;;;;;18.60;10.10;;;;;;;11.78;52.12;99810.84;108347;1251;60258;-65
2024/02/23 07:32:50;;;;;;;24.40;12.90;;;;;;;11.55;52.78;99815.19;108315;1251;60614;-67
2024/02/23 07:35:20;;;;;;;20.30;11.20;;;;;;;11.93;51.91;99809.60;108143;1252;72545;-66
2024/02/23 07:37:47;;;;;;;22.90;12.20;;;;;;;12.11;51.48;99813.64;108176;1254;72223;-68
2024/02/23 07:40:15;;;;;;;16.80;9.40;;;;;;;11.78;52.18;99815.05;108139;1253;73241;-67
2024/02/23 07:42:46;;;;;;;22.50;13.80;;;;;;;12.14;51.42;99813.85;108095;1254;62277;-67
2024/02/23 07:45:14;;;;;;;26.60;13.00;;;;;;;11.84;52.07;99818.64;108131;1252;60431;-67
2024/02/23 07:47:41;;;;;;;21.40;13.10;;;;;;;12.10;51.65;99825.71;108152;1253;76078;-67
2024/02/23 07:50:09;;;;;;;22.80;11.00;;;;;;;12.22;51.21;99828.42;108172;1253;69043;-66
2024/02/23 07:52:38;;;;;;;21.90;11.90;;;;;;;11.80;52.32;99826.02;108172;1253;75058;-65
2024/02/23 07:55:07;;;;;;;20.60;13.10;;;;;;;12.24;51.33;99821.48;108240;1254;61583;-68
2024/02/23 07:57:34;;;;;;;20.30;11.30;;;;;;;12.34;51.00;99818.70;108239;1253;60291;-66
2024/02/23 08:00:04;;;;;;;17.40;9.60;;;;;;;12.16;51.26;99819.58;108192;1254;76057;-66
2024/02/23 08:02:38;;;;;;;17.90;9.20;;;;;;;11.93;51.94;99826.30;108168;1254;71766;-67
2024/02/23 08:05:07;;;;;;;20.90;12.10;;;;;;;12.23;51.26;99824.90;108129;1256;71445;-67
2024/02/23 08:07:35;;;;;;;21.00;13.10;;;;;;;12.67;50.40;99819.39;108131;1252;61105;-66
2024/02/23 08:10:04;;;;;;;16.50;7.90;;;;;;;12.32;50.97;99825.48;108140;1252;61330;-67
2024/02/23 08:12:32;;;;;;;24.50;13.60;;;;;;;12.12;51.62;99829.98;108209;1253;76444;-66
2024/02/23 08:15:04;;;;;;;18.40;9.20;;;;;;;12.34;50.95;99827.34;108215;1254;72296;-67
2024/02/23 08:17:31;;;;;;;23.10;13.40;;;;;;;12.02;51.82;99830.09;108204;1253;73616;-66
2024/02/23 08:19:59;;;;;;;17.90;8.80;;;;;;;12.26;51.28;99826.31;108176;1253;63112;-67
2024/02/23 08:22:27;;;;;;;21.70;12.80;;;;;;;12.06;51.70;99833.45;108219;1253;60783;-66
2024/02/23 08:24:55;;;;;;;20.00;12.40;;;;;;;12.27;51.29;99838.42;108255;1254;72161;-67
2024/02/23 08:27:23;;;;;;;26.10;14.00;;;;;;;12.33;51.08;99836.55;108182;1254;70757;-67
2024/02/23 08:29:50;;;;;;;21.70;11.60;;;;;;;12.56;50.69;99839.98;108171;1254;71477;-66
2024/02/23 08:32:18;;;;;;;25.20;14.10;;;;;;;12.51;50.76;99835.67;108167;1253;60996;-67
2024/02/23 08:34:46;;;;;;;23.70;13.70;;;;;;;12.08;51.51;99842.14;108201;1257;60424;-67
2024/02/23 08:37:14;;;;;;;22.70;11.80;;;;;;;12.16;51.61;99838.77;108233;1251;74483;-66
2024/02/23 08:39:41;;;;;;;29.10;12.70;;;;;;;12.28;51.40;99835.55;108253;1251;69829;-67
2024/02/23 08:42:09;;;;;;;23.70;13.70;;;;;;;12.30;51.32;99844.98;108348;1251;71413;-67
2024/02/23 08:44:39;;;;;;;25.50;14.00;;;;;;;12.69;50.41;99836.67;108234;1251;61199;-66
2024/02/23 08:47:06;;;;;;;22.90;12.30;;;;;;;12.51;50.67;99847.08;108169;1251;62289;-66
2024/02/23 08:49:34;;;;;;;24.20;14.20;;;;;;;12.42;50.83;99855.48;108258;1251;74060;-68
2024/02/23 08:52:03;;;;;;;26.60;12.80;;;;;;;12.86;49.88;99848.14;108393;1251;72466;-66
2024/02/23 08:54:31;;;;;;;24.40;12.10;;;;;;;12.91;49.66;99851.45;108413;1254;71166;-66
2024/02/23 08:56:59;;;;;;;27.80;13.30;;;;;;;12.68;50.28;99864.90;108309;1254;61895;-65
2024/02/23 08:59:26;;;;;;;23.20;13.30;;;;;;;12.60;50.36;99860.02;108323;1251;62409;-67
2024/02/23 09:01:54;;;;;;;27.60;13.80;;;;;;;12.51;50.71;99856.95;108328;1251;76174;-66
2024/02/23 09:04:22;;;;;;;23.90;14.50;;;;;;;12.80;50.02;99852.49;108298;1251;72338;-68
2024/02/23 09:06:51;;;;;;;26.20;15.80;;;;;;;13.04;49.42;99859.94;108234;1251;72971;-67
2024/02/23 09:09:19;;;;;;;26.00;13.40;;;;;;;12.89;49.65;99857.15;108292;1251;61670;-67
2024/02/23 09:11:46;;;;;;;23.20;11.70;;;;;;;13.14;49.08;99854.30;108290;1251;60832;-66
2024/02/23 09:14:14;;;;;;;24.90;13.60;;;;;;;12.93;49.41;99856.80;108287;1251;73939;-66
2024/02/23 09:16:42;;;;;;;26.00;14.60;;;;;;;12.93;49.55;99860.31;108343;1251;68728;-67
2024/02/23 09:19:09;;;;;;;26.40;16.30;;;;;;;13.13;49.00;99861.58;108150;1251;74794;-66
2024/02/23 09:21:37;;;;;;;26.10;14.60;;;;;;;12.88;49.36;99870.10;108324;1254;61218;-66
2024/02/23 09:24:05;;;;;;;25.00;15.50;;;;;;;12.66;50.03;99874.55;108315;1251;60434;-65
2024/02/23 09:26:33;;;;;;;20.80;11.30;;;;;;;12.88;49.66;99869.77;108370;1251;73659;-67
2024/02/23 09:29:01;;;;;;;22.70;13.20;;;;;;;12.88;49.84;99873.63;108343;1251;69198;-66
2024/02/23 09:31:29;;;;;;;27.40;13.60;;;;;;;12.91;49.55;99877.32;108322;1251;72727;-67
2024/02/23 09:33:57;;;;;;;24.60;12.50;;;;;;;12.57;50.35;99873.01;108212;1254;62112;-67
2024/02/23 09:36:25;;;;;;;27.80;16.50;;;;;;;12.72;50.12;99881.98;108156;1253;59939;-67
2024/02/23 09:38:53;;;;;;;28.60;14.90;;;;;;;12.94;49.59;99881.22;108171;1252;72616;-67
2024/02/23 09:41:21;;;;;;;25.50;11.00;;;;;;;12.78;49.80;99880.80;108151;1254;69749;-67
2024/02/23 09:43:49;;;;;;;26.30;15.60;;;;;;;12.83;49.77;99883.40;108144;1253;72759;-66
2024/02/23 09:46:17;;;;;;;27.50;16.20;;;;;;;12.98;49.42;99884.55;108143;1253;60306;-68
2024/02/23 09:48:45;;;;;;;23.30;11.00;;;;;;;12.74;49.99;99881.91;108116;1252;60390;-68
2024/02/23 09:51:12;;;;;;;23.50;13.60;;;;;;;12.52;50.58;99880.50;108199;1254;71955;-67
2024/02/23 09:53:40;;;;;;;24.90;13.30;;;;;;;12.65;50.61;99886.89;107914;1254;70256;-67
2024/02/23 09:56:10;;;;;;;24.80;12.00;;;;;;;12.94;50.08;99878.92;107981;1253;71948;-68
2024/02/23 09:58:39;;;;;;;20.00;11.40;;;;;;;12.73;50.38;99882.64;108136;1253;60986;-67
2024/02/23 10:01:11;;;;;;;27.30;15.30;;;;;;;13.10;49.92;99889.39;108158;1252;62115;-67
2024/02/23 10:03:39;;;;;;;26.10;13.40;;;;;;;13.32;49.30;99887.05;108183;1254;74689;-68
2024/02/23 10:06:08;;;;;;;23.60;14.90;;;;;;;13.05;49.86;99901.50;108144;1254;69126;-68
2024/02/23 10:08:36;;;;;;;25.70;14.90;;;;;;;12.90;50.16;99896.73;108137;1253;72759;-68
2024/02/23 10:11:05;;;;;;;29.20;16.90;;;;;;;12.94;50.34;99892.52;108130;1253;61169;-68
2024/02/23 10:13:32;;;;;;;21.60;12.00;;;;;;;13.20;49.78;99885.23;108172;1253;60287;-66
2024/02/23 10:16:00;;;;;;;28.00;16.10;;;;;;;12.89;50.51;99901.42;108200;1253;74271;-66
2024/02/23 10:18:41;;;;;;;;;;;;;;;12.98;50.45;99890.73;108180;1256;70472;-67
2024/02/23 10:21:09;;;;;;;30.50;16.10;;;;;;;12.80;50.72;99888.97;108120;1254;72512;-66
2024/02/23 10:23:36;;;;;;;29.10;16.20;;;;;;;12.80;50.91;99889.16;108109;1253;62764;-66
2024/02/23 10:26:06;;;;;;;31.50;16.40;;;;;;;12.93;50.65;99896.45;108065;1254;62266;-68
2024/02/23 10:28:35;;;;;;;26.50;15.60;;;;;;;13.29;49.89;99890.56;108215;1254;75897;-68
2024/02/23 10:31:02;;;;;;;30.60;17.00;;;;;;;13.38;49.77;99879.70;108211;1254;71842;-68
2024/02/23 10:33:30;;;;;;;27.30;14.80;;;;;;;13.60;49.26;99899.39;108216;1251;72431;-68
2024/02/23 10:35:58;;;;;;;29.10;15.50;;;;;;;13.45;49.51;99884.99;108225;1253;61057;-67
2024/02/23 10:38:26;;;;;;;27.70;16.40;;;;;;;13.31;50.05;99884.66;108121;1251;60408;-68
2024/02/23 10:40:55;;;;;;;24.70;13.80;;;;;;;13.74;49.04;99880.98;108210;1251;76150;-68
2024/02/23 10:43:29;;;;;;;30.70;16.80;;;;;;;13.78;49.02;99881.48;108289;1251;70633;-68
2024/02/23 10:45:57;;;;;;;30.10;15.80;;;;;;;13.71;49.12;99883.23;108373;1254;73597;-68
2024/02/23 10:48:25;;;;;;;23.50;14.80;;;;;;;13.53;49.52;99878.56;108213;1251;61335;-67
2024/02/23 10:50:52;;;;;;;26.80;16.00;;;;;;;13.52;49.76;99879.86;108172;1251;61910;-68
2024/02/23 10:53:20;;;;;;;27.20;16.30;;;;;;;13.69;49.49;99875.44;108196;1251;74316;-65
2024/02/23 10:55:49;;;;;;;23.50;13.70;;;;;;;13.76;49.31;99878.56;108123;1251;70615;-67
2024/02/23 10:58:17;;;;;;;31.50;16.40;;;;;;;13.62;49.78;99883.03;108135;1251;72612;-67
2024/02/23 11:00:46;;;;;;;28.10;15.70;;;;;;;13.64;49.73;99886.44;108341;1256;62216;-68
2024/02/23 11:03:14;;;;;;;29.60;18.00;;;;;;;13.86;49.56;99882.07;108271;1251;60462;-68
2024/02/23 11:05:41;;;;;;;28.10;14.80;;;;;;;13.81;49.74;99880.09;108323;1251;73824;-67
2024/02/23 11:08:09;;;;;;;30.00;16.90;;;;;;;13.99;49.43;99882.59;108368;1251;69254;-67
2024/02/23 11:10:48;;;;;;;24.20;13.90;;;;;;;14.33;48.83;99880.00;108243;1256;73011;-68
2024/02/23 11:13:16;;;;;;;29.60;15.20;;;;;;;14.34;48.74;99878.69;108349;1251;62921;-68
2024/02/23 11:15:45;;;;;;;27.60;17.10;;;;;;;14.52;48.27;99881.05;108358;1251;60942;-67
2024/02/23 11:18:23;;;;;;;27.30;17.00;;;;;;;14.63;48.17;99876.71;108166;1251;73799;-67
2024/02/23 11:20:56;;;;;;;26.10;15.60;;;;;;;14.65;48.10;99874.15;108398;1251;68933;-67